logo
Search for airport 
image banner adimage banner adimage banner ad
image banner ad

ED0635 - Ansprung

Located in , Germany

ICAO - , IATA -

Data provided by Airmate  

General information

Coordinates: N50°39'3" E13°16'17"
Elevation is 2220 feet MSL.
 
View others Airports in Saxony

Operational data

Special qualification required
Current time UTC:
Current local time:
Weather at : LKKV - Karlovy Vary ( 56 km )
TAF: TAF LKKV 272300Z 2800/2900 23006KT 7000 -RA BKN017 TEMPO 2800/2804 4000 SHRA SCT014CB PROB30 TEMPO 2800/2804 2500 TSRA BKN012CB TEMPO 2804/2806 3000 BR BKN007 BECMG 2806/2808 9999 SCT035 BECMG 2815/2817 CAVOK
View NOTAMs / SUP AIP / TFR affecting this airport [VIEW]
Communications frequencies: [VIEW]

Runways:

Airport contact information

Address: Germany

Satellite view of ED0635